Time;durP1;ratioP1;P1;durP2;ratioP2;P2;SDS_P1;SDS_P2;PMS_P1;PMS_P2;Temp;Humidity;BMP_temperature;BMP_pressure;BME280_temperature;BME280_humidity;BME280_pressure;Samples;Min_cycle;Max_cycle;Signal;HPM_P1;HPM_P2
2022/11/15 00:02:36;;;;;;;7.47;4.40;;;;;;;9.63;49.04;100536.41;4911784;29;20059;-69
2022/11/15 00:05:22;;;;;;;6.25;3.83;;;;;;;9.67;49.10;100537.84;4911790;29;20123;-69
2022/11/15 00:08:09;;;;;;;6.13;4.18;;;;;;;9.69;49.12;100533.13;4909025;29;20096;-69
2022/11/15 00:10:56;;;;;;;9.25;4.65;;;;;;;9.72;49.21;100523.81;4909193;29;20075;-69
2022/11/15 00:13:43;;;;;;;6.68;4.60;;;;;;;9.76;49.35;100525.25;4905569;29;20489;-70
2022/11/15 00:16:30;;;;;;;6.00;4.22;;;;;;;9.77;49.15;100526.97;4908533;29;20051;-69
2022/11/15 00:19:17;;;;;;;6.60;4.45;;;;;;;9.79;49.63;100531.31;4908199;29;20532;-69
2022/11/15 00:22:03;;;;;;;6.03;4.28;;;;;;;9.81;49.44;100523.84;4908624;29;20777;-69
2022/11/15 00:24:49;;;;;;;7.75;4.43;;;;;;;9.83;49.48;100524.56;4909920;29;20138;-69
2022/11/15 00:27:35;;;;;;;7.35;4.53;;;;;;;9.87;49.82;100527.03;4911222;29;20597;-69
2022/11/15 00:30:23;;;;;;;6.32;4.43;;;;;;;9.91;49.87;100533.94;4910741;29;20562;-69
2022/11/15 00:33:10;;;;;;;6.95;4.32;;;;;;;9.93;49.39;100532.78;4905242;29;20397;-69
2022/11/15 00:36:02;;;;;;;8.02;4.60;;;;;;;9.97;50.48;100526.06;4904581;29;20573;-69
2022/11/15 00:38:50;;;;;;;6.93;4.47;;;;;;;9.98;49.93;100529.66;4911237;29;20658;-69
2022/11/15 00:41:36;;;;;;;5.65;3.92;;;;;;;10.01;49.66;100529.38;4909984;29;20177;-69
2022/11/15 00:44:22;;;;;;;6.78;4.47;;;;;;;10.04;49.83;100526.38;4906766;29;20600;-69
2022/11/15 00:47:10;;;;;;;6.78;4.53;;;;;;;10.08;50.07;100531.41;4907316;29;20063;-69
2022/11/15 00:49:56;;;;;;;7.32;4.95;;;;;;;10.10;50.01;100523.06;4906037;29;20063;-69
2022/11/15 00:52:43;;;;;;;7.20;4.47;;;;;;;10.12;50.27;100530.13;4910673;29;20262;-69
2022/11/15 00:55:29;;;;;;;6.40;4.38;;;;;;;10.16;49.83;100536.16;4911628;29;20067;-69
2022/11/15 00:58:16;;;;;;;6.93;4.47;;;;;;;10.18;50.10;100526.84;4903314;29;20386;-69
2022/11/15 01:01:09;;;;;;;6.53;4.15;;;;;;;10.24;50.92;100530.88;4905460;29;20059;-69
2022/11/15 01:03:58;;;;;;;6.68;4.20;;;;;;;10.24;50.41;100520.78;4910991;29;20115;-69
2022/11/15 01:06:47;;;;;;;6.57;4.00;;;;;;;10.26;50.12;100526.13;4906478;29;20425;-69
2022/11/15 01:09:33;;;;;;;7.00;4.05;;;;;;;10.28;50.09;100526.88;4904740;29;20263;-69
2022/11/15 01:12:20;;;;;;;6.90;4.20;;;;;;;10.32;50.26;100516.53;4901681;29;20047;-69
2022/11/15 01:15:07;;;;;;;5.85;4.13;;;;;;;10.33;50.32;100521.81;4908684;29;20441;-69
2022/11/15 01:17:53;;;;;;;6.10;3.97;;;;;;;10.35;50.38;100508.00;4904220;29;20124;-69
2022/11/15 01:20:42;;;;;;;5.40;4.07;;;;;;;10.39;50.83;100506.75;4902764;29;20139;-69
2022/11/15 01:23:28;;;;;;;5.70;4.18;;;;;;;10.37;50.19;100504.13;4909777;29;20466;-69
2022/11/15 01:26:17;;;;;;;4.97;3.50;;;;;;;10.39;50.59;100510.34;4910932;29;20055;-69
2022/11/15 01:29:03;;;;;;;5.97;3.50;;;;;;;10.42;50.28;100511.91;4910687;29;20302;-69
2022/11/15 01:31:50;;;;;;;5.70;4.22;;;;;;;10.43;50.11;100510.91;4913486;29;20051;-69
2022/11/15 01:34:36;;;;;;;5.57;4.07;;;;;;;10.43;50.64;100514.50;4910562;29;20060;-69
2022/11/15 01:37:23;;;;;;;6.40;3.78;;;;;;;10.46;50.54;100506.03;4906178;29;20055;-69
2022/11/15 01:40:11;;;;;;;6.55;4.18;;;;;;;10.48;50.74;100503.97;4909399;29;20055;-69
2022/11/15 01:42:57;;;;;;;6.47;4.00;;;;;;;10.48;50.72;100498.50;4909701;29;20054;-69
2022/11/15 01:45:46;;;;;;;5.55;4.03;;;;;;;10.50;50.80;100507.44;4909432;29;20406;-69
2022/11/15 01:48:34;;;;;;;6.90;4.38;;;;;;;10.52;50.62;100499.97;4910077;29;20654;-69
2022/11/15 01:51:24;;;;;;;5.55;4.00;;;;;;;10.55;50.44;100505.19;4900458;29;20168;-69
2022/11/15 01:54:15;;;;;;;6.60;4.10;;;;;;;10.57;51.04;100505.03;4908173;29;20051;-69
2022/11/15 01:57:05;;;;;;;5.68;4.07;;;;;;;10.57;50.42;100491.34;4909332;29;20055;-69
2022/11/15 01:59:51;;;;;;;6.50;4.28;;;;;;;10.57;50.92;100489.47;4908374;29;20055;-69
2022/11/15 02:02:39;;;;;;;6.90;4.35;;;;;;;10.59;50.63;100490.22;4911099;29;20384;-69
2022/11/15 02:05:25;;;;;;;7.95;4.45;;;;;;;10.60;50.65;100482.88;4909717;29;20055;-69
2022/11/15 02:08:19;;;;;;;7.60;4.40;;;;;;;10.63;50.56;100492.69;4909300;29;20071;-69
2022/11/15 02:11:10;;;;;;;6.22;4.68;;;;;;;10.64;50.90;100473.38;4909115;29;20060;-69
2022/11/15 02:13:58;;;;;;;7.15;4.43;;;;;;;10.65;50.84;100472.34;4909483;29;20064;-69
2022/11/15 02:16:53;;;;;;;5.35;3.90;;;;;;;10.69;51.37;100472.94;4909622;29;20086;-69
2022/11/15 02:20:29;;;;;;;6.88;4.53;;;;;;;10.66;52.13;100459.53;4909969;29;20058;-69
2022/11/15 02:23:46;;;;;;;7.53;4.18;;;;;;;10.67;51.82;100462.13;4908350;29;20105;-69
2022/11/15 02:27:00;;;;;;;7.00;4.13;;;;;;;10.71;51.82;100463.56;4906226;29;20163;-69
2022/11/15 02:30:04;;;;;;;6.20;4.10;;;;;;;10.72;52.00;100459.84;4904398;29;20544;-69
2022/11/15 02:32:57;;;;;;;7.80;4.68;;;;;;;10.74;51.22;100457.78;4905742;29;20091;-69
2022/11/15 02:35:55;;;;;;;7.20;4.43;;;;;;;10.77;51.70;100457.50;4904756;29;20055;-69
2022/11/15 02:38:47;;;;;;;6.32;4.35;;;;;;;10.79;50.92;100454.63;4904250;29;20050;-69
2022/11/15 02:41:42;;;;;;;7.07;4.68;;;;;;;10.81;51.89;100455.38;4908386;29;20051;-69
2022/11/15 02:44:34;;;;;;;5.97;3.92;;;;;;;10.82;51.62;100454.31;4902443;29;20108;-69
2022/11/15 02:47:21;;;;;;;7.80;4.28;;;;;;;10.83;51.01;100456.91;4909947;29;20429;-69
2022/11/15 02:50:13;;;;;;;6.97;4.32;;;;;;;10.86;51.60;100456.66;4908105;29;20050;-69
2022/11/15 02:52:59;;;;;;;7.68;4.63;;;;;;;10.87;51.41;100446.56;4908731;29;20425;-69
2022/11/15 02:55:50;;;;;;;6.80;4.43;;;;;;;10.89;51.12;100445.41;4910654;29;20067;-69
2022/11/15 02:58:53;;;;;;;6.22;4.30;;;;;;;10.94;51.73;100447.69;4909276;29;20495;-69
2022/11/15 03:01:51;;;;;;;6.05;4.10;;;;;;;10.94;52.13;100458.66;4906738;29;20072;-69
2022/11/15 03:04:44;;;;;;;6.40;4.32;;;;;;;10.96;51.50;100457.50;4909846;29;20596;-69
2022/11/15 03:07:38;;;;;;;6.97;4.32;;;;;;;10.98;51.92;100457.31;4909725;29;20156;-69
2022/11/15 03:10:33;;;;;;;8.95;4.35;;;;;;;10.99;51.12;100456.31;4909968;29;20059;-69
2022/11/15 03:13:26;;;;;;;7.60;4.28;;;;;;;11.02;51.62;100452.44;4908178;29;20051;-69
2022/11/15 03:16:22;;;;;;;5.53;3.97;;;;;;;11.04;51.72;100447.69;4912058;29;20066;-69
2022/11/15 03:19:15;;;;;;;6.53;4.30;;;;;;;11.06;51.82;100454.72;4905344;29;20154;-69
2022/11/15 03:22:05;;;;;;;7.00;4.70;;;;;;;11.05;51.51;100442.06;4912890;29;20115;-69
2022/11/15 03:24:58;;;;;;;6.20;4.20;;;;;;;11.09;51.74;100446.22;4911072;29;20226;-69
2022/11/15 03:27:49;;;;;;;7.10;4.32;;;;;;;11.11;51.43;100451.56;4914198;29;20113;-69
2022/11/15 03:30:40;;;;;;;5.88;4.25;;;;;;;11.11;51.73;100444.19;4907321;29;20051;-69
2022/11/15 03:33:28;;;;;;;7.85;4.72;;;;;;;11.11;51.41;100433.25;4913997;29;20055;-69
2022/11/15 03:36:16;;;;;;;7.82;4.90;;;;;;;11.12;51.20;100434.97;4907796;29;20062;-69
2022/11/15 03:39:08;;;;;;;5.85;4.05;;;;;;;11.14;51.16;100430.19;4908901;29;20151;-69
2022/11/15 03:42:05;;;;;;;7.18;4.38;;;;;;;11.16;51.74;100421.84;4911079;29;20103;-69
2022/11/15 03:44:58;;;;;;;5.78;3.88;;;;;;;11.16;51.35;100421.84;4910465;29;20050;-69
2022/11/15 03:47:52;;;;;;;6.70;4.38;;;;;;;11.17;51.35;100429.91;4910035;29;20050;-69
2022/11/15 03:50:39;;;;;;;6.65;4.05;;;;;;;11.17;51.04;100418.09;4904191;29;20055;-69
2022/11/15 03:53:25;;;;;;;6.25;3.85;;;;;;;11.17;51.34;100423.56;4911510;29;20528;-69
2022/11/15 03:56:13;;;;;;;5.82;4.20;;;;;;;11.17;51.45;100421.69;4908342;29;20055;-69
2022/11/15 03:59:01;;;;;;;6.13;4.03;;;;;;;11.19;51.60;100422.41;4910021;29;21536;-69
2022/11/15 04:01:48;;;;;;;5.43;4.05;;;;;;;11.20;51.20;100423.28;4908852;29;20048;-69
2022/11/15 04:04:34;;;;;;;5.93;3.70;;;;;;;11.20;51.54;100418.66;4900911;29;20067;-69
2022/11/15 04:07:23;;;;;;;5.70;3.40;;;;;;;11.22;51.45;100424.00;4906224;29;20514;-69
2022/11/15 04:10:11;;;;;;;6.88;4.03;;;;;;;11.23;51.30;100418.34;4910199;29;20055;-69
2022/11/15 04:12:57;;;;;;;5.55;3.83;;;;;;;11.23;51.24;100412.00;4911427;29;20591;-69
2022/11/15 04:15:45;;;;;;;5.18;3.67;;;;;;;11.25;51.23;100413.59;4905848;29;20588;-69
2022/11/15 04:18:31;;;;;;;7.05;4.05;;;;;;;11.23;51.42;100410.13;4910283;29;20416;-69
2022/11/15 04:24:21;;;;;;;5.22;3.63;;;;;;;11.24;51.78;100413.72;4907970;29;20048;-69
2022/11/15 04:27:09;;;;;;;7.32;3.92;;;;;;;11.24;51.74;100400.91;4910096;29;20474;-69
2022/11/15 04:29:57;;;;;;;5.45;3.67;;;;;;;11.28;51.45;100412.44;4910604;29;20429;-69
2022/11/15 04:32:45;;;;;;;5.20;3.17;;;;;;;11.27;51.37;100414.31;4909050;29;20056;-69
2022/11/15 04:35:32;;;;;;;4.60;3.30;;;;;;;11.27;51.82;100408.84;4901727;29;20111;-69
2022/11/15 04:38:18;;;;;;;5.45;3.58;;;;;;;11.29;51.21;100408.69;4902941;29;20137;-69
2022/11/15 04:41:05;;;;;;;6.07;3.60;;;;;;;11.30;51.24;100413.16;4908546;29;20064;-69
2022/11/15 04:43:51;;;;;;;5.05;3.50;;;;;;;11.30;51.19;100415.91;4972742;23;20058;-83
2022/11/15 08:21:52;;;;;;;;;;;;;;;11.32;51.14;100494.16;4760453;29;20255;-84
2022/11/15 08:24:39;;;;;;;3.38;1.30;;;;;;;11.60;50.59;100496.97;4761756;30;19936;-83
2022/11/15 08:27:36;;;;;;;3.30;1.80;;;;;;;11.68;49.92;100494.38;4759259;29;20066;-84
2022/11/15 08:30:23;;;;;;;2.70;1.55;;;;;;;11.68;50.24;100491.63;4787217;29;20065;-85
2022/11/15 08:33:12;;;;;;;2.58;1.38;;;;;;;11.73;50.34;100494.78;4854042;29;20093;-84
2022/11/15 08:35:59;;;;;;;3.10;1.65;;;;;;;11.74;50.17;100486.41;4858290;29;20476;-85
2022/11/15 08:38:47;;;;;;;3.20;1.63;;;;;;;11.77;50.03;100492.59;4862301;29;20068;-85
2022/11/15 08:41:37;;;;;;;3.45;1.73;;;;;;;11.78;49.56;100484.25;4857281;29;20109;-85
2022/11/15 08:44:24;;;;;;;2.65;1.50;;;;;;;11.80;49.92;100484.09;4906719;29;20543;-84
2022/11/15 08:47:13;;;;;;;3.10;1.60;;;;;;;11.83;49.67;100479.16;4910523;29;20620;-85
2022/11/15 08:50:03;;;;;;;2.65;1.33;;;;;;;11.89;49.87;100470.31;4910988;29;20051;-83
2022/11/15 08:52:50;;;;;;;3.00;1.60;;;;;;;11.92;49.88;100475.50;4916958;29;20108;-83
2022/11/15 08:55:39;;;;;;;2.70;1.80;;;;;;;11.99;49.29;100471.13;4914048;29;20144;-83
2022/11/15 08:58:26;;;;;;;2.90;1.40;;;;;;;12.02;49.86;100457.13;4911153;29;20092;-84
2022/11/15 09:01:17;;;;;;;2.13;1.30;;;;;;;12.11;49.28;100466.31;4907148;29;22741;-84
2022/11/15 09:04:04;;;;;;;2.38;1.40;;;;;;;12.13;49.54;100464.25;4914720;29;20172;-84
2022/11/15 09:10:14;;;;;;;3.85;1.50;;;;;;;12.24;49.19;100457.69;4917064;29;20051;-82
2022/11/15 09:13:02;;;;;;;2.13;1.35;;;;;;;12.31;49.06;100467.88;4916033;29;20427;-84
2022/11/15 09:15:49;;;;;;;3.70;1.35;;;;;;;12.38;49.04;100468.13;4916497;29;20111;-83
2022/11/15 09:18:36;;;;;;;2.05;1.30;;;;;;;12.42;48.73;100464.06;4914971;29;20112;-83
2022/11/15 09:21:23;;;;;;;2.63;1.25;;;;;;;12.48;48.68;100461.56;4917793;29;20063;-84
2022/11/15 09:24:10;;;;;;;2.72;1.38;;;;;;;12.54;48.66;100451.84;4909952;29;20518;-83
2022/11/15 09:26:58;;;;;;;1.55;1.00;;;;;;;12.59;47.93;100460.47;4917790;29;20055;-83
2022/11/15 09:29:47;;;;;;;2.45;1.23;;;;;;;12.65;48.17;100457.13;4921641;29;20059;-83
2022/11/15 09:32:35;;;;;;;2.38;1.23;;;;;;;12.69;47.70;100458.53;4919449;29;20574;-83
2022/11/15 09:35:25;;;;;;;1.95;1.25;;;;;;;12.74;47.66;100453.41;4910583;29;20070;-83
2022/11/15 09:38:12;;;;;;;2.40;1.27;;;;;;;12.80;47.78;100446.41;4913771;29;20063;-83
2022/11/15 09:41:18;;;;;;;2.20;1.20;;;;;;;12.88;46.68;100451.97;4913116;29;20055;-84
2022/11/15 09:44:36;;;;;;;2.67;1.73;;;;;;;12.93;46.89;100451.53;4914892;29;20107;-83
2022/11/15 09:47:42;;;;;;;1.67;0.90;;;;;;;12.99;46.08;100445.38;4913613;29;20090;-83
2022/11/15 09:50:42;;;;;;;2.33;0.90;;;;;;;13.02;45.74;100432.19;4908311;29;20048;-84
2022/11/15 09:53:16;;;;;;;2.15;1.23;;;;;;;13.08;45.81;100420.56;4926188;29;20087;-83
2022/11/15 09:56:05;;;;;;;2.15;1.02;;;;;;;13.12;45.49;100421.06;4923312;29;20052;-84
2022/11/15 09:58:44;;;;;;;2.17;1.00;;;;;;;13.15;45.11;100413.38;4914391;29;20064;-83
2022/11/15 10:01:29;;;;;;;1.85;0.93;;;;;;;13.20;45.50;100412.91;4910763;29;20060;-84
2022/11/15 10:04:47;;;;;;;2.40;0.90;;;;;;;13.22;45.16;100408.09;4911591;29;20079;-83
2022/11/15 10:11:08;;;;;;;2.30;1.05;;;;;;;13.26;45.28;100393.03;4893946;29;20067;-83
2022/11/15 10:14:02;;;;;;;2.35;0.93;;;;;;;13.35;45.02;100396.69;4904895;29;20052;-85
2022/11/15 10:17:03;;;;;;;1.40;1.05;;;;;;;13.37;44.43;100391.84;4919569;29;20047;-84
2022/11/15 10:19:39;;;;;;;2.83;1.00;;;;;;;13.40;44.53;100380.56;4914449;29;20070;-84
2022/11/15 10:22:25;;;;;;;2.70;1.00;;;;;;;13.44;43.85;100380.06;4927887;29;20123;-84
2022/11/15 10:25:12;;;;;;;1.20;0.80;;;;;;;13.47;43.91;100382.47;4926752;29;20048;-83
2022/11/15 10:27:41;;;;;;;1.40;0.82;;;;;;;13.48;44.32;100384.19;4923724;29;20507;-84
2022/11/15 10:30:15;;;;;;;2.38;0.95;;;;;;;13.53;44.32;100373.56;4919957;29;20044;-84
2022/11/15 10:32:49;;;;;;;2.25;1.00;;;;;;;13.57;44.36;100368.63;4928328;29;20427;-84
2022/11/15 10:35:21;;;;;;;3.15;0.88;;;;;;;13.61;44.15;100370.03;4925500;29;20040;-84
2022/11/15 10:38:05;;;;;;;2.73;0.87;;;;;;;13.63;44.10;100360.56;4931284;29;20051;-84
2022/11/15 10:40:35;;;;;;;2.72;1.10;;;;;;;13.70;44.39;100377.25;4915629;29;20774;-84
2022/11/15 10:43:14;;;;;;;1.48;1.00;;;;;;;13.75;42.98;100372.16;4932017;23;20071;-85
2022/11/15 10:45:43;;;;;;;2.33;0.90;;;;;;;13.78;43.76;100369.03;4947130;29;20499;-85
2022/11/15 10:48:26;;;;;;;1.80;1.08;;;;;;;13.85;42.49;100361.00;4945821;28;20632;-86
2022/11/15 10:50:55;;;;;;;2.33;0.98;;;;;;;13.88;43.72;100356.00;4945792;29;20251;-86
2022/11/15 10:53:32;;;;;;;1.98;1.00;;;;;;;13.93;42.80;100353.63;4926824;29;20039;-86
2022/11/15 10:56:05;;;;;;;2.33;0.98;;;;;;;13.96;42.62;100347.78;4943165;29;20055;-87
2022/11/15 10:58:38;;;;;;;2.33;1.00;;;;;;;13.99;42.21;100330.09;4942681;29;20080;-87
2022/11/15 11:01:11;;;;;;;2.00;1.20;;;;;;;14.07;42.11;100341.09;4929032;29;20129;-88
2022/11/15 11:03:40;;;;;;;;;;;;;;;13.80;43.02;100325.75;4931668;29;20036;-86
2022/11/15 11:06:11;;;;;;;1.38;0.80;;;;;;;14.08;42.51;100328.19;4936300;29;19923;-84
2022/11/15 11:08:40;;;;;;;2.35;0.80;;;;;;;14.17;42.30;100329.94;4937313;29;20048;-88
2022/11/15 11:11:10;;;;;;;1.60;0.85;;;;;;;14.19;42.12;100322.38;4951459;29;20044;-87
2022/11/15 11:13:42;;;;;;;1.15;0.85;;;;;;;14.23;41.75;100319.09;4954736;29;20056;-87
2022/11/15 11:16:20;;;;;;;;;;;;;;;13.98;42.10;100325.59;4915030;29;20055;-88
2022/11/15 11:18:57;;;;;;;1.67;0.70;;;;;;;14.26;41.45;100328.91;4939978;29;19958;-86
2022/11/15 11:21:36;;;;;;;1.80;1.00;;;;;;;14.32;41.34;100315.31;4936563;29;20072;-88
2022/11/15 11:24:19;;;;;;;1.42;0.70;;;;;;;14.36;40.15;100307.56;4936937;29;20072;-88
2022/11/15 11:27:00;;;;;;;1.77;0.70;;;;;;;14.41;39.62;100310.69;4934412;29;20040;-87
2022/11/15 11:29:42;;;;;;;0.82;0.50;;;;;;;14.46;39.67;100316.50;4941758;29;20047;-86
2022/11/15 11:32:27;;;;;;;1.35;0.70;;;;;;;14.51;39.53;100310.53;4944166;29;20051;-87
2022/11/15 11:35:08;;;;;;;1.48;0.70;;;;;;;14.55;39.87;100310.00;4951856;29;20071;-85
2022/11/15 11:37:45;;;;;;;1.58;0.63;;;;;;;14.60;39.45;100299.31;4941398;29;20562;-85
2022/11/15 11:40:25;;;;;;;2.60;0.80;;;;;;;14.66;38.03;100290.38;4939564;29;20171;-86
2022/11/15 11:43:01;;;;;;;0.88;0.50;;;;;;;14.68;38.91;100295.72;4954245;29;20055;-87
2022/11/15 11:45:59;;;;;;;1.33;0.70;;;;;;;14.71;37.59;100298.97;4946351;29;20063;-86
2022/11/15 11:48:41;;;;;;;1.90;0.70;;;;;;;14.74;37.67;100301.38;4935101;29;20517;-86
2022/11/15 11:51:16;;;;;;;1.23;0.60;;;;;;;14.77;37.88;100297.38;4951016;29;20042;-87
2022/11/15 11:53:53;;;;;;;2.17;0.60;;;;;;;14.80;37.45;100299.81;4939635;29;20120;-87
2022/11/15 11:56:28;;;;;;;1.65;0.52;;;;;;;14.81;37.03;100290.50;4952064;29;20107;-86
2022/11/15 11:59:01;;;;;;;1.50;0.70;;;;;;;14.81;37.96;100289.66;4943711;29;20051;-85
2022/11/15 12:01:36;;;;;;;1.75;0.60;;;;;;;14.81;37.27;100289.66;4942749;29;20059;-86
2022/11/15 12:04:12;;;;;;;1.77;0.57;;;;;;;14.80;37.11;100282.41;4941222;29;20044;-85
2022/11/15 12:06:48;;;;;;;2.13;0.70;;;;;;;14.81;37.86;100289.66;4943844;29;20503;-85
2022/11/15 12:09:22;;;;;;;1.10;0.60;;;;;;;14.80;37.27;100277.78;4932259;29;20055;-85
2022/11/15 12:12:00;;;;;;;1.25;0.70;;;;;;;14.81;37.01;100265.72;4946050;28;20056;-85
2022/11/15 12:14:34;;;;;;;3.28;0.73;;;;;;;14.82;37.04;100261.06;4953680;29;20055;-86
2022/11/15 12:17:05;;;;;;;2.38;0.80;;;;;;;14.79;38.24;100255.91;4935973;29;20071;-84
2022/11/15 12:19:34;;;;;;;1.83;0.80;;;;;;;14.82;38.36;100258.31;4935632;29;20047;-85
2022/11/15 12:22:11;;;;;;;1.05;0.52;;;;;;;14.86;37.31;100237.63;4929895;29;20040;-85
2022/11/15 12:24:44;;;;;;;0.73;0.55;;;;;;;14.88;37.52;100235.56;4931940;29;20054;-84
2022/11/15 12:27:17;;;;;;;;;;;;;;;14.63;38.44;100232.03;4933289;29;20048;-84
2022/11/15 12:29:57;;;;;;;2.38;0.90;;;;;;;14.89;38.01;100231.78;4935342;29;19927;-84
2022/11/15 12:32:29;;;;;;;2.17;0.70;;;;;;;14.92;37.84;100232.28;4937346;29;20111;-84
2022/11/15 12:34:58;;;;;;;1.00;0.55;;;;;;;14.91;37.80;100241.59;4938397;29;20090;-85
2022/11/15 12:37:56;;;;;;;1.75;0.57;;;;;;;14.89;37.27;100220.75;4940340;29;20131;-85
2022/11/15 12:40:37;;;;;;;1.13;0.60;;;;;;;14.92;37.87;100223.16;4936563;29;20043;-85
2022/11/15 12:43:41;;;;;;;1.58;0.60;;;;;;;14.91;37.04;100232.47;4935641;29;20043;-85
2022/11/15 12:46:14;;;;;;;;;;;;;;;14.60;38.02;100204.84;4948431;29;20040;-84
2022/11/15 12:49:00;;;;;;;2.15;1.00;;;;;;;14.82;36.87;100201.31;4933235;29;19947;-85
2022/11/15 12:52:05;;;;;;;1.35;0.60;;;;;;;14.77;37.28;100190.81;4946275;28;20298;-85
2022/11/15 12:55:00;;;;;;;2.10;0.70;;;;;;;14.82;37.29;100182.03;4892904;29;20052;-82
2022/11/15 12:57:40;;;;;;;1.08;0.60;;;;;;;14.83;37.51;100189.28;4890950;29;20048;-82
2022/11/15 13:00:41;;;;;;;1.50;0.70;;;;;;;14.80;37.08;100174.97;4912372;29;20522;-83
2022/11/15 13:03:25;;;;;;;1.67;0.65;;;;;;;14.82;37.50;100162.75;4931973;29;20055;-83
2022/11/15 13:06:10;;;;;;;2.38;0.80;;;;;;;14.83;37.03;100164.47;4946928;29;20040;-82
2022/11/15 13:08:48;;;;;;;1.90;0.80;;;;;;;14.85;36.79;100154.13;4932168;29;20047;-82
2022/11/15 13:11:51;;;;;;;1.77;0.70;;;;;;;14.83;36.90;100147.94;4934287;29;20055;-82
2022/11/15 13:14:56;;;;;;;1.20;0.70;;;;;;;14.79;37.29;100140.22;4933496;29;20051;-82
2022/11/15 13:17:27;;;;;;;2.58;0.73;;;;;;;14.81;37.54;100136.25;4941208;29;20319;-82
2022/11/15 13:20:00;;;;;;;2.28;1.00;;;;;;;14.82;37.25;100137.97;4932075;29;20048;-83
2022/11/15 13:25:22;;;;;;;1.27;0.80;;;;;;;14.77;37.05;100130.22;4947543;29;20511;-83
2022/11/15 13:27:52;;;;;;;2.22;0.55;;;;;;;14.74;37.68;100138.88;4932334;29;20606;-83
2022/11/15 13:30:22;;;;;;;1.10;0.70;;;;;;;14.73;37.81;100128.03;4939190;29;20108;-82
2022/11/15 13:32:52;;;;;;;1.30;0.68;;;;;;;14.71;37.47;100128.19;4941491;29;20071;-82
2022/11/15 13:35:24;;;;;;;3.30;0.90;;;;;;;14.70;36.86;100129.22;4942436;29;20119;-83
2022/11/15 13:37:54;;;;;;;3.60;0.95;;;;;;;14.65;37.61;100114.28;4945564;29;20063;-83
2022/11/15 13:40:30;;;;;;;2.22;0.85;;;;;;;14.64;36.73;100112.56;4949630;29;20059;-83
2022/11/15 13:42:58;;;;;;;1.10;0.70;;;;;;;14.60;37.65;100108.47;4929457;29;20075;-82
2022/11/15 13:45:27;;;;;;;2.28;0.75;;;;;;;14.56;37.33;100101.59;4929726;29;20107;-83
2022/11/15 13:47:58;;;;;;;2.47;0.65;;;;;;;14.55;37.51;100106.22;4930825;29;20056;-82
2022/11/15 13:50:31;;;;;;;1.40;0.77;;;;;;;14.53;37.19;100099.19;4935282;29;20107;-83
2022/11/15 13:53:03;;;;;;;1.73;1.00;;;;;;;14.49;37.85;100093.19;4930332;29;20051;-82
2022/11/15 13:55:33;;;;;;;2.72;1.00;;;;;;;14.45;37.29;100088.16;4931183;29;20058;-83
2022/11/15 13:58:05;;;;;;;2.50;1.20;;;;;;;14.42;37.73;100089.41;4927417;29;20116;-83
2022/11/15 14:00:44;;;;;;;2.30;1.00;;;;;;;14.38;37.45;100086.13;4925593;29;20066;-84
2022/11/15 14:03:20;;;;;;;2.00;0.88;;;;;;;14.38;37.53;100071.50;4928233;29;20467;-83
2022/11/15 14:06:07;;;;;;;2.35;1.00;;;;;;;14.32;37.26;100078.59;4929537;29;20047;-83
2022/11/15 14:08:36;;;;;;;2.13;0.90;;;;;;;14.30;38.07;100055.88;4953649;29;20488;-82
2022/11/15 14:11:10;;;;;;;1.35;0.80;;;;;;;14.31;37.49;100067.75;4932679;29;20087;-82
2022/11/15 14:13:38;;;;;;;1.65;1.00;;;;;;;14.25;38.18;100058.31;4945962;29;20051;-82
2022/11/15 14:16:18;;;;;;;3.55;1.10;;;;;;;14.25;37.92;100058.31;4941366;29;20064;-85
2022/11/15 14:18:50;;;;;;;2.10;1.02;;;;;;;14.20;38.37;100052.47;4933387;29;20055;-86
2022/11/15 14:21:21;;;;;;;2.80;1.03;;;;;;;14.17;38.32;100038.22;4927122;29;20068;-86
2022/11/15 14:23:51;;;;;;;2.92;1.02;;;;;;;14.14;38.09;100044.09;4935913;29;20313;-85
2022/11/15 14:26:30;;;;;;;2.05;0.90;;;;;;;14.16;38.36;100036.50;4928633;29;20052;-85
2022/11/15 14:29:18;;;;;;;2.60;1.20;;;;;;;14.10;38.70;100037.22;4930551;29;20094;-86
2022/11/15 14:31:46;;;;;;;5.03;1.50;;;;;;;14.07;38.42;100024.69;4949134;29;20071;-87
2022/11/15 14:34:14;;;;;;;1.92;1.20;;;;;;;14.07;38.33;100013.66;4936559;29;20044;-84
2022/11/15 14:36:43;;;;;;;2.72;1.30;;;;;;;14.10;38.49;100023.47;4930085;29;20537;-86
2022/11/15 14:39:12;;;;;;;2.97;1.20;;;;;;;14.06;38.88;100013.84;4952314;29;20055;-84
2022/11/15 14:41:39;;;;;;;2.33;1.20;;;;;;;14.05;38.60;100018.47;4953064;28;20043;-85
2022/11/15 14:44:11;;;;;;;2.03;1.27;;;;;;;14.05;38.71;100014.88;4934207;29;20050;-86
2022/11/15 14:46:39;;;;;;;2.45;1.48;;;;;;;13.99;38.94;100005.44;4937018;29;20132;-85
2022/11/15 14:49:07;;;;;;;2.88;1.58;;;;;;;13.99;38.81;100005.44;4938203;29;20554;-84
2022/11/15 14:51:38;;;;;;;3.40;1.70;;;;;;;13.99;38.78;99998.06;4938742;29;20134;-86
2022/11/15 14:54:10;;;;;;;2.63;1.52;;;;;;;13.99;38.82;99984.28;4937972;29;20051;-82
2022/11/15 14:56:38;;;;;;;3.20;1.50;;;;;;;13.93;39.38;99996.03;4939044;28;20043;-85
2022/11/15 14:59:07;;;;;;;2.65;1.60;;;;;;;13.92;39.02;99988.81;4937932;29;20058;-86
2022/11/15 15:01:35;;;;;;;3.17;1.65;;;;;;;13.95;39.46;99990.31;4932866;29;20135;-84
2022/11/15 15:04:03;;;;;;;3.42;1.50;;;;;;;13.93;39.07;99987.78;4932472;29;20147;-83
2022/11/15 15:06:31;;;;;;;2.88;1.60;;;;;;;13.93;39.33;99978.66;4946056;28;20052;-83
2022/11/15 15:08:59;;;;;;;4.10;1.85;;;;;;;13.91;39.55;99981.56;4950513;29;20048;-83
2022/11/15 15:11:32;;;;;;;3.05;1.75;;;;;;;13.92;39.15;99971.44;4942202;29;20060;-83
2022/11/15 15:14:01;;;;;;;3.45;1.67;;;;;;;13.88;39.13;99975.56;4962426;29;20048;-83
2022/11/15 15:16:29;;;;;;;2.28;1.40;;;;;;;13.88;39.29;99970.06;4939989;29;20048;-84
2022/11/15 15:18:56;;;;;;;2.83;1.60;;;;;;;13.84;39.53;99960.47;4932359;29;20112;-84
2022/11/15 15:21:30;;;;;;;2.75;1.60;;;;;;;13.86;39.23;99953.72;4931871;29;20103;-83
2022/11/15 15:24:04;;;;;;;2.78;1.60;;;;;;;13.85;39.62;99951.19;4932421;29;20055;-85
2022/11/15 15:26:36;;;;;;;3.95;1.67;;;;;;;13.82;39.34;99946.88;4924687;29;20388;-84
2022/11/15 15:29:08;;;;;;;3.20;1.77;;;;;;;13.78;39.86;99945.50;4931730;29;20044;-84
2022/11/15 15:31:36;;;;;;;2.88;1.70;;;;;;;13.76;39.73;99936.59;4949321;29;20052;-84
2022/11/15 15:34:07;;;;;;;2.58;1.40;;;;;;;13.78;39.23;99930.91;4936975;29;20047;-83
2022/11/15 15:39:26;;;;;;;2.13;1.45;;;;;;;13.71;39.45;99919.75;4930489;29;20123;-84
2022/11/15 15:41:55;;;;;;;2.78;1.67;;;;;;;13.73;39.98;99928.69;4953290;28;20135;-84
2022/11/15 15:44:24;;;;;;;2.92;1.55;;;;;;;13.72;39.62;99928.88;4947901;29;20055;-84
2022/11/15 15:46:52;;;;;;;2.80;1.80;;;;;;;13.70;39.91;99911.69;4934086;29;20087;-83
2022/11/15 15:49:20;;;;;;;3.75;1.90;;;;;;;13.68;40.09;99925.63;4929136;29;20055;-84
2022/11/15 15:51:48;;;;;;;2.17;1.42;;;;;;;13.66;39.84;99922.19;4934432;28;20086;-84
2022/11/15 15:54:17;;;;;;;2.63;1.58;;;;;;;13.66;39.83;99918.59;4933038;29;20059;-84
2022/11/15 15:56:45;;;;;;;3.83;1.50;;;;;;;13.65;39.82;99914.13;4947336;29;20102;-84
2022/11/15 15:59:14;;;;;;;2.60;1.10;;;;;;;13.67;40.08;99918.41;4945237;29;21498;-84
2022/11/15 16:01:42;;;;;;;2.28;1.50;;;;;;;13.64;40.32;99910.50;4947055;29;20384;-83
2022/11/15 16:04:10;;;;;;;3.03;1.50;;;;;;;13.62;39.86;99907.06;4930992;29;20162;-84
2022/11/15 16:06:43;;;;;;;2.63;1.52;;;;;;;13.63;39.89;99909.66;4942030;29;20054;-84
2022/11/15 16:09:14;;;;;;;2.22;1.10;;;;;;;13.63;40.29;99906.03;4936840;29;20052;-83
2022/11/15 16:11:46;;;;;;;2.45;1.30;;;;;;;13.59;39.97;99896.44;4930625;29;20433;-83
2022/11/15 16:14:15;;;;;;;2.53;1.45;;;;;;;13.61;40.12;99897.13;4939512;29;20076;-86
2022/11/15 16:16:44;;;;;;;2.25;1.40;;;;;;;13.58;40.48;99892.84;4944381;29;20055;-86
2022/11/15 16:19:14;;;;;;;2.90;1.27;;;;;;;13.58;40.24;99886.47;4943842;29;20056;-85
2022/11/15 16:21:42;;;;;;;3.00;1.25;;;;;;;13.58;40.40;99898.34;4949422;29;20107;-84
2022/11/15 16:24:10;;;;;;;2.85;1.48;;;;;;;13.56;40.38;99894.91;4945321;29;20134;-86
2022/11/15 16:26:39;;;;;;;4.00;1.52;;;;;;;13.57;40.26;99890.25;4933910;29;20139;-86
2022/11/15 16:29:08;;;;;;;3.38;1.50;;;;;;;13.55;40.22;99890.41;4934771;29;20060;-86